sensor_id;sensor_type;location;lat;lon;timestamp;pressure;altitude;pressure_sealevel;temperature;humidity
79465;BME280;68932;47.410;8.232;2023-09-07T00:00:01;97049.50;;;19.87;69.05
79465;BME280;68932;47.410;8.232;2023-09-07T00:02:29;97048.16;;;19.84;68.92
79465;BME280;68932;47.410;8.232;2023-09-07T00:04:57;97049.08;;;19.82;68.89
79465;BME280;68932;47.410;8.232;2023-09-07T00:07:26;97048.13;;;19.80;68.97
79465;BME280;68932;47.410;8.232;2023-09-07T00:09:54;97047.48;;;19.77;69.01
79465;BME280;68932;47.410;8.232;2023-09-07T00:12:22;97049.54;;;19.76;68.94
79465;BME280;68932;47.410;8.232;2023-09-07T00:14:51;97050.73;;;19.75;68.92
79465;BME280;68932;47.410;8.232;2023-09-07T00:17:19;97051.29;;;19.73;69.01
79465;BME280;68932;47.410;8.232;2023-09-07T00:19:47;97055.75;;;19.73;69.02
79465;BME280;68932;47.410;8.232;2023-09-07T00:22:16;97056.94;;;19.70;68.91
79465;BME280;68932;47.410;8.232;2023-09-07T00:24:45;97057.73;;;19.69;68.93
79465;BME280;68932;47.410;8.232;2023-09-07T00:27:13;97057.38;;;19.67;68.88
79465;BME280;68932;47.410;8.232;2023-09-07T00:29:42;97056.47;;;19.65;68.85
79465;BME280;68932;47.410;8.232;2023-09-07T00:32:10;97057.44;;;19.65;68.80
79465;BME280;68932;47.410;8.232;2023-09-07T00:34:38;97056.84;;;19.64;68.76
79465;BME280;68932;47.410;8.232;2023-09-07T00:37:06;97057.65;;;19.63;68.70
79465;BME280;68932;47.410;8.232;2023-09-07T00:39:35;97056.27;;;19.62;68.54
79465;BME280;68932;47.410;8.232;2023-09-07T00:42:03;97052.36;;;19.61;68.76
79465;BME280;68932;47.410;8.232;2023-09-07T00:44:32;97056.25;;;19.59;68.64
79465;BME280;68932;47.410;8.232;2023-09-07T00:47:00;97058.54;;;19.57;68.65
79465;BME280;68932;47.410;8.232;2023-09-07T00:49:29;97057.85;;;19.55;68.69
79465;BME280;68932;47.410;8.232;2023-09-07T00:51:57;97058.20;;;19.53;68.52
79465;BME280;68932;47.410;8.232;2023-09-07T00:54:26;97063.67;;;19.52;68.47
79465;BME280;68932;47.410;8.232;2023-09-07T00:56:55;97064.45;;;19.50;68.58
79465;BME280;68932;47.410;8.232;2023-09-07T00:59:24;97059.77;;;19.48;68.42
79465;BME280;68932;47.410;8.232;2023-09-07T01:01:52;97061.66;;;19.47;68.37
79465;BME280;68932;47.410;8.232;2023-09-07T01:04:20;97062.83;;;19.47;68.32
79465;BME280;68932;47.410;8.232;2023-09-07T01:07:01;97058.46;;;19.46;68.07
79465;BME280;68932;47.410;8.232;2023-09-07T01:09:32;97057.88;;;19.44;68.14
79465;BME280;68932;47.410;8.232;2023-09-07T01:12:03;97058.17;;;19.43;68.07
79465;BME280;68932;47.410;8.232;2023-09-07T01:14:31;97058.25;;;19.41;68.14
79465;BME280;68932;47.410;8.232;2023-09-07T01:17:00;97054.11;;;19.39;68.11
79465;BME280;68932;47.410;8.232;2023-09-07T01:19:28;97055.82;;;19.38;68.18
79465;BME280;68932;47.410;8.232;2023-09-07T01:21:57;97053.54;;;19.36;68.00
79465;BME280;68932;47.410;8.232;2023-09-07T01:24:26;97053.39;;;19.34;68.06
79465;BME280;68932;47.410;8.232;2023-09-07T01:26:54;97049.52;;;19.32;68.03
79465;BME280;68932;47.410;8.232;2023-09-07T01:29:24;97052.20;;;19.30;68.01
79465;BME280;68932;47.410;8.232;2023-09-07T01:31:54;97049.23;;;19.26;68.07
79465;BME280;68932;47.410;8.232;2023-09-07T01:34:22;97046.59;;;19.24;67.98
79465;BME280;68932;47.410;8.232;2023-09-07T01:36:51;97047.55;;;19.22;68.16
79465;BME280;68932;47.410;8.232;2023-09-07T01:39:19;97046.48;;;19.20;68.22
79465;BME280;68932;47.410;8.232;2023-09-07T01:41:47;97046.89;;;19.17;68.15
79465;BME280;68932;47.410;8.232;2023-09-07T01:44:15;97045.35;;;19.14;68.23
79465;BME280;68932;47.410;8.232;2023-09-07T01:46:44;97043.56;;;19.13;68.16
79465;BME280;68932;47.410;8.232;2023-09-07T01:49:12;97044.66;;;19.11;68.26
79465;BME280;68932;47.410;8.232;2023-09-07T01:51:40;97048.61;;;19.09;68.12
79465;BME280;68932;47.410;8.232;2023-09-07T01:54:08;97044.61;;;19.08;68.12
79465;BME280;68932;47.410;8.232;2023-09-07T01:56:37;97046.52;;;19.07;68.18
79465;BME280;68932;47.410;8.232;2023-09-07T01:59:05;97048.08;;;19.05;68.12
79465;BME280;68932;47.410;8.232;2023-09-07T02:01:34;97053.27;;;19.05;68.16
79465;BME280;68932;47.410;8.232;2023-09-07T02:04:02;97054.60;;;19.04;68.02
79465;BME280;68932;47.410;8.232;2023-09-07T02:06:30;97057.41;;;19.02;68.21
79465;BME280;68932;47.410;8.232;2023-09-07T02:08:59;97052.94;;;19.01;68.11
79465;BME280;68932;47.410;8.232;2023-09-07T02:11:27;97048.59;;;19.00;68.11
79465;BME280;68932;47.410;8.232;2023-09-07T02:13:55;97048.27;;;18.96;68.13
79465;BME280;68932;47.410;8.232;2023-09-07T02:16:24;97047.77;;;18.92;68.07
79465;BME280;68932;47.410;8.232;2023-09-07T02:18:59;97048.62;;;18.91;68.15
79465;BME280;68932;47.410;8.232;2023-09-07T02:21:27;97051.25;;;18.89;68.24
79465;BME280;68932;47.410;8.232;2023-09-07T02:23:55;97046.55;;;18.89;68.17
79465;BME280;68932;47.410;8.232;2023-09-07T02:26:24;97047.23;;;18.87;68.18
79465;BME280;68932;47.410;8.232;2023-09-07T02:28:52;97050.82;;;18.85;68.15
79465;BME280;68932;47.410;8.232;2023-09-07T02:31:20;97046.23;;;18.83;68.11
79465;BME280;68932;47.410;8.232;2023-09-07T02:33:49;97043.02;;;18.79;68.23
79465;BME280;68932;47.410;8.232;2023-09-07T02:36:17;97042.15;;;18.77;68.49
79465;BME280;68932;47.410;8.232;2023-09-07T02:38:45;97042.34;;;18.73;68.32
79465;BME280;68932;47.410;8.232;2023-09-07T02:41:13;97044.17;;;18.71;68.36
79465;BME280;68932;47.410;8.232;2023-09-07T02:43:41;97045.39;;;18.67;68.29
79465;BME280;68932;47.410;8.232;2023-09-07T02:46:10;97044.89;;;18.67;68.40
79465;BME280;68932;47.410;8.232;2023-09-07T02:48:38;97044.50;;;18.66;68.47
79465;BME280;68932;47.410;8.232;2023-09-07T02:51:06;97046.13;;;18.63;68.42
79465;BME280;68932;47.410;8.232;2023-09-07T02:53:34;97042.71;;;18.62;68.54
79465;BME280;68932;47.410;8.232;2023-09-07T02:56:03;97044.50;;;18.60;68.44
79465;BME280;68932;47.410;8.232;2023-09-07T02:58:31;97043.54;;;18.59;68.55
79465;BME280;68932;47.410;8.232;2023-09-07T03:00:59;97046.56;;;18.57;68.70
79465;BME280;68932;47.410;8.232;2023-09-07T03:03:28;97046.17;;;18.55;68.53
79465;BME280;68932;47.410;8.232;2023-09-07T03:05:56;97047.21;;;18.54;68.83
79465;BME280;68932;47.410;8.232;2023-09-07T03:08:24;97048.46;;;18.52;68.70
79465;BME280;68932;47.410;8.232;2023-09-07T03:10:52;97046.59;;;18.50;68.83
79465;BME280;68932;47.410;8.232;2023-09-07T03:13:21;97053.19;;;18.49;68.82
79465;BME280;68932;47.410;8.232;2023-09-07T03:15:52;97053.78;;;18.48;68.80
79465;BME280;68932;47.410;8.232;2023-09-07T03:18:21;97052.77;;;18.48;68.74
79465;BME280;68932;47.410;8.232;2023-09-07T03:20:49;97054.48;;;18.47;68.72
79465;BME280;68932;47.410;8.232;2023-09-07T03:23:18;97058.20;;;18.45;68.85
79465;BME280;68932;47.410;8.232;2023-09-07T03:25:46;97053.80;;;18.43;68.88
79465;BME280;68932;47.410;8.232;2023-09-07T03:28:14;97056.07;;;18.40;68.91
79465;BME280;68932;47.410;8.232;2023-09-07T03:30:42;97055.45;;;18.35;69.00
79465;BME280;68932;47.410;8.232;2023-09-07T03:33:10;97052.86;;;18.32;69.09
79465;BME280;68932;47.410;8.232;2023-09-07T03:35:39;97053.48;;;18.29;69.31
79465;BME280;68932;47.410;8.232;2023-09-07T03:38:07;97054.34;;;18.26;69.25
79465;BME280;68932;47.410;8.232;2023-09-07T03:40:35;97051.98;;;18.23;69.43
79465;BME280;68932;47.410;8.232;2023-09-07T03:43:04;97058.00;;;18.18;69.45
79465;BME280;68932;47.410;8.232;2023-09-07T03:45:32;97052.80;;;18.12;69.50
79465;BME280;68932;47.410;8.232;2023-09-07T03:48:01;97052.17;;;18.08;69.66
79465;BME280;68932;47.410;8.232;2023-09-07T03:50:29;97056.26;;;18.04;69.77
79465;BME280;68932;47.410;8.232;2023-09-07T03:52:57;97056.17;;;18.01;69.98
79465;BME280;68932;47.410;8.232;2023-09-07T03:55:25;97048.94;;;17.99;70.18
79465;BME280;68932;47.410;8.232;2023-09-07T03:57:53;97049.45;;;17.95;70.03
79465;BME280;68932;47.410;8.232;2023-09-07T04:00:22;97049.94;;;17.92;70.14
79465;BME280;68932;47.410;8.232;2023-09-07T04:02:50;97050.34;;;17.90;70.01
79465;BME280;68932;47.410;8.232;2023-09-07T04:05:18;97048.10;;;17.87;70.11
79465;BME280;68932;47.410;8.232;2023-09-07T04:07:46;97049.51;;;17.85;70.29
79465;BME280;68932;47.410;8.232;2023-09-07T04:10:15;97046.99;;;17.84;70.19
79465;BME280;68932;47.410;8.232;2023-09-07T04:12:43;97052.96;;;17.82;70.27
79465;BME280;68932;47.410;8.232;2023-09-07T04:15:12;97054.90;;;17.80;70.39
79465;BME280;68932;47.410;8.232;2023-09-07T04:17:40;97055.66;;;17.78;70.48
79465;BME280;68932;47.410;8.232;2023-09-07T04:20:11;97055.64;;;17.76;70.49
79465;BME280;68932;47.410;8.232;2023-09-07T04:22:39;97059.61;;;17.73;70.63
79465;BME280;68932;47.410;8.232;2023-09-07T04:25:09;97059.94;;;17.70;70.64
79465;BME280;68932;47.410;8.232;2023-09-07T04:27:37;97055.96;;;17.67;70.69
79465;BME280;68932;47.410;8.232;2023-09-07T04:30:07;97061.69;;;17.65;70.82
79465;BME280;68932;47.410;8.232;2023-09-07T04:32:35;97061.31;;;17.62;70.88
79465;BME280;68932;47.410;8.232;2023-09-07T04:35:05;97061.41;;;17.60;70.96
79465;BME280;68932;47.410;8.232;2023-09-07T04:37:34;97058.75;;;17.58;70.96
79465;BME280;68932;47.410;8.232;2023-09-07T04:40:02;97060.94;;;17.57;71.00
79465;BME280;68932;47.410;8.232;2023-09-07T04:42:31;97060.84;;;17.56;71.13
79465;BME280;68932;47.410;8.232;2023-09-07T04:44:59;97063.54;;;17.56;71.06
79465;BME280;68932;47.410;8.232;2023-09-07T04:47:27;97065.33;;;17.56;71.07
79465;BME280;68932;47.410;8.232;2023-09-07T04:49:55;97068.55;;;17.55;71.13
79465;BME280;68932;47.410;8.232;2023-09-07T04:52:24;97067.90;;;17.55;71.10
79465;BME280;68932;47.410;8.232;2023-09-07T04:54:52;97074.17;;;17.54;71.26
79465;BME280;68932;47.410;8.232;2023-09-07T04:57:20;97068.21;;;17.51;71.30
79465;BME280;68932;47.410;8.232;2023-09-07T04:59:48;97069.80;;;17.49;71.28
79465;BME280;68932;47.410;8.232;2023-09-07T05:02:16;97073.63;;;17.47;71.14
79465;BME280;68932;47.410;8.232;2023-09-07T05:04:45;97073.60;;;17.43;71.17
79465;BME280;68932;47.410;8.232;2023-09-07T05:07:13;97071.23;;;17.40;71.37
79465;BME280;68932;47.410;8.232;2023-09-07T05:09:41;97068.35;;;17.37;71.42
79465;BME280;68932;47.410;8.232;2023-09-07T05:12:10;97067.80;;;17.35;71.57
79465;BME280;68932;47.410;8.232;2023-09-07T05:14:38;97072.62;;;17.35;71.66
79465;BME280;68932;47.410;8.232;2023-09-07T05:17:06;97072.62;;;17.35;71.74
79465;BME280;68932;47.410;8.232;2023-09-07T05:19:35;97076.94;;;17.36;71.91
79465;BME280;68932;47.410;8.232;2023-09-07T05:22:03;97077.91;;;17.37;71.99
79465;BME280;68932;47.410;8.232;2023-09-07T05:24:31;97078.17;;;17.38;71.98
79465;BME280;68932;47.410;8.232;2023-09-07T05:27:00;97081.53;;;17.40;72.07
79465;BME280;68932;47.410;8.232;2023-09-07T05:29:28;97084.86;;;17.42;72.14
79465;BME280;68932;47.410;8.232;2023-09-07T05:31:56;97084.59;;;17.45;72.06
79465;BME280;68932;47.410;8.232;2023-09-07T05:34:24;97086.73;;;17.47;72.08
79465;BME280;68932;47.410;8.232;2023-09-07T05:36:53;97089.98;;;17.48;72.21
79465;BME280;68932;47.410;8.232;2023-09-07T05:39:21;97093.06;;;17.51;72.22
79465;BME280;68932;47.410;8.232;2023-09-07T05:41:52;97096.65;;;17.54;72.34
79465;BME280;68932;47.410;8.232;2023-09-07T05:44:20;97096.66;;;17.58;72.44
79465;BME280;68932;47.410;8.232;2023-09-07T05:46:49;97098.24;;;17.63;72.49
79465;BME280;68932;47.410;8.232;2023-09-07T05:49:17;97104.25;;;17.67;72.51
79465;BME280;68932;47.410;8.232;2023-09-07T05:51:45;97104.38;;;17.71;72.37
79465;BME280;68932;47.410;8.232;2023-09-07T05:54:13;97098.31;;;17.75;72.30
79465;BME280;68932;47.410;8.232;2023-09-07T05:56:42;97099.30;;;17.80;72.33
79465;BME280;68932;47.410;8.232;2023-09-07T05:59:10;97100.44;;;17.85;72.17
79465;BME280;68932;47.410;8.232;2023-09-07T06:01:40;97093.40;;;17.90;72.22
79465;BME280;68932;47.410;8.232;2023-09-07T06:04:08;97094.30;;;17.95;71.99
79465;BME280;68932;47.410;8.232;2023-09-07T06:06:36;97095.27;;;18.01;72.02
79465;BME280;68932;47.410;8.232;2023-09-07T06:09:05;97097.58;;;18.06;71.81
79465;BME280;68932;47.410;8.232;2023-09-07T06:11:33;97097.47;;;18.11;71.86
79465;BME280;68932;47.410;8.232;2023-09-07T06:14:02;97096.63;;;18.16;71.83
79465;BME280;68932;47.410;8.232;2023-09-07T06:16:30;97101.70;;;18.22;71.74
79465;BME280;68932;47.410;8.232;2023-09-07T06:18:58;97103.02;;;18.29;71.36
79465;BME280;68932;47.410;8.232;2023-09-07T06:21:26;97103.48;;;18.35;71.20
79465;BME280;68932;47.410;8.232;2023-09-07T06:23:55;97101.63;;;18.42;71.09
79465;BME280;68932;47.410;8.232;2023-09-07T06:26:23;97102.39;;;18.47;71.26
79465;BME280;68932;47.410;8.232;2023-09-07T06:28:51;97104.74;;;18.54;71.16
79465;BME280;68932;47.410;8.232;2023-09-07T06:31:19;97102.94;;;18.60;70.92
79465;BME280;68932;47.410;8.232;2023-09-07T06:33:48;97104.84;;;18.66;70.87
79465;BME280;68932;47.410;8.232;2023-09-07T06:36:16;97106.21;;;18.72;70.78
79465;BME280;68932;47.410;8.232;2023-09-07T06:38:44;97107.61;;;18.78;70.19
79465;BME280;68932;47.410;8.232;2023-09-07T06:41:13;97105.45;;;18.84;70.01
79465;BME280;68932;47.410;8.232;2023-09-07T06:43:41;97107.27;;;18.90;69.92
79465;BME280;68932;47.410;8.232;2023-09-07T06:46:10;97110.83;;;18.98;69.78
79465;BME280;68932;47.410;8.232;2023-09-07T06:48:38;97112.29;;;19.04;69.62
79465;BME280;68932;47.410;8.232;2023-09-07T06:51:07;97112.05;;;19.10;69.26
79465;BME280;68932;47.410;8.232;2023-09-07T06:53:36;97112.66;;;19.17;69.04
79465;BME280;68932;47.410;8.232;2023-09-07T06:56:05;97114.73;;;19.23;68.82
79465;BME280;68932;47.410;8.232;2023-09-07T06:58:33;97113.34;;;19.28;68.46
79465;BME280;68932;47.410;8.232;2023-09-07T07:01:01;97112.75;;;19.34;68.26
79465;BME280;68932;47.410;8.232;2023-09-07T07:03:30;97114.03;;;19.39;68.12
79465;BME280;68932;47.410;8.232;2023-09-07T07:05:59;97114.10;;;19.44;67.96
79465;BME280;68932;47.410;8.232;2023-09-07T07:08:27;97116.33;;;19.50;67.84
79465;BME280;68932;47.410;8.232;2023-09-07T07:10:55;97115.71;;;19.54;67.80
79465;BME280;68932;47.410;8.232;2023-09-07T07:13:23;97113.73;;;19.60;67.83
79465;BME280;68932;47.410;8.232;2023-09-07T07:15:52;97119.04;;;19.68;67.69
79465;BME280;68932;47.410;8.232;2023-09-07T07:18:20;97122.13;;;19.74;67.76
79465;BME280;68932;47.410;8.232;2023-09-07T07:20:48;97121.38;;;19.80;67.13
79465;BME280;68932;47.410;8.232;2023-09-07T07:23:17;97121.70;;;19.85;67.33
79465;BME280;68932;47.410;8.232;2023-09-07T07:25:46;97123.02;;;19.91;67.02
79465;BME280;68932;47.410;8.232;2023-09-07T07:28:14;97120.73;;;19.97;66.80
79465;BME280;68932;47.410;8.232;2023-09-07T07:30:42;97122.33;;;20.04;66.88
79465;BME280;68932;47.410;8.232;2023-09-07T07:33:11;97124.64;;;20.11;66.76
79465;BME280;68932;47.410;8.232;2023-09-07T07:35:39;97123.04;;;20.16;66.49
79465;BME280;68932;47.410;8.232;2023-09-07T07:38:07;97127.98;;;20.20;66.26
79465;BME280;68932;47.410;8.232;2023-09-07T07:40:35;97126.61;;;20.26;65.96
79465;BME280;68932;47.410;8.232;2023-09-07T07:43:04;97128.11;;;20.32;65.82
79465;BME280;68932;47.410;8.232;2023-09-07T07:45:33;97126.54;;;20.38;65.69
79465;BME280;68932;47.410;8.232;2023-09-07T07:48:01;97123.47;;;20.43;65.82
79465;BME280;68932;47.410;8.232;2023-09-07T07:50:29;97125.39;;;20.48;65.62
79465;BME280;68932;47.410;8.232;2023-09-07T07:52:58;97124.02;;;20.53;65.32
79465;BME280;68932;47.410;8.232;2023-09-07T07:55:26;97118.61;;;20.59;65.24
79465;BME280;68932;47.410;8.232;2023-09-07T07:57:54;97121.25;;;20.64;64.98
79465;BME280;68932;47.410;8.232;2023-09-07T08:00:23;97119.40;;;20.70;64.72
79465;BME280;68932;47.410;8.232;2023-09-07T08:02:51;97118.80;;;20.74;64.37
79465;BME280;68932;47.410;8.232;2023-09-07T08:05:19;97124.89;;;20.80;64.19
79465;BME280;68932;47.410;8.232;2023-09-07T08:07:48;97120.19;;;20.83;64.01
79465;BME280;68932;47.410;8.232;2023-09-07T08:10:16;97122.23;;;20.87;63.57
79465;BME280;68932;47.410;8.232;2023-09-07T08:12:44;97116.91;;;20.92;63.60
79465;BME280;68932;47.410;8.232;2023-09-07T08:15:13;97117.13;;;20.97;63.66
79465;BME280;68932;47.410;8.232;2023-09-07T08:17:41;97118.55;;;21.02;63.81
79465;BME280;68932;47.410;8.232;2023-09-07T08:20:11;97115.74;;;21.08;63.61
79465;BME280;68932;47.410;8.232;2023-09-07T08:22:39;97122.67;;;21.13;63.66
79465;BME280;68932;47.410;8.232;2023-09-07T08:25:09;97114.70;;;21.20;63.80
79465;BME280;68932;47.410;8.232;2023-09-07T08:27:37;97112.27;;;21.26;63.57
79465;BME280;68932;47.410;8.232;2023-09-07T08:30:08;97114.89;;;21.31;63.66
79465;BME280;68932;47.410;8.232;2023-09-07T08:32:36;97112.83;;;21.37;63.72
79465;BME280;68932;47.410;8.232;2023-09-07T08:35:06;97110.68;;;21.43;64.14
79465;BME280;68932;47.410;8.232;2023-09-07T08:37:34;97110.13;;;21.46;63.74
79465;BME280;68932;47.410;8.232;2023-09-07T08:40:03;97109.59;;;21.48;63.25
79465;BME280;68932;47.410;8.232;2023-09-07T08:42:31;97111.09;;;21.50;63.51
79465;BME280;68932;47.410;8.232;2023-09-07T08:45:02;97107.75;;;21.55;63.49
79465;BME280;68932;47.410;8.232;2023-09-07T08:47:31;97104.31;;;21.62;63.43
79465;BME280;68932;47.410;8.232;2023-09-07T08:50:01;97102.64;;;21.68;63.81
79465;BME280;68932;47.410;8.232;2023-09-07T08:52:29;97101.05;;;21.74;63.84
79465;BME280;68932;47.410;8.232;2023-09-07T08:54:58;97097.58;;;21.80;63.81
79465;BME280;68932;47.410;8.232;2023-09-07T08:57:27;97091.65;;;21.86;64.49
79465;BME280;68932;47.410;8.232;2023-09-07T08:59:57;97091.64;;;21.95;64.29
79465;BME280;68932;47.410;8.232;2023-09-07T09:02:25;97089.38;;;22.01;63.99
79465;BME280;68932;47.410;8.232;2023-09-07T09:04:54;97091.05;;;22.06;64.02
79465;BME280;68932;47.410;8.232;2023-09-07T09:07:22;97090.23;;;22.12;64.05
79465;BME280;68932;47.410;8.232;2023-09-07T09:09:51;97093.23;;;22.17;63.52
79465;BME280;68932;47.410;8.232;2023-09-07T09:12:19;97093.92;;;22.22;63.71
79465;BME280;68932;47.410;8.232;2023-09-07T09:14:47;97093.64;;;22.28;63.40
79465;BME280;68932;47.410;8.232;2023-09-07T09:17:16;97099.26;;;22.34;63.39
79465;BME280;68932;47.410;8.232;2023-09-07T09:19:44;97100.54;;;22.40;63.61
79465;BME280;68932;47.410;8.232;2023-09-07T09:22:13;97099.81;;;22.45;63.35
79465;BME280;68932;47.410;8.232;2023-09-07T09:24:41;97094.85;;;22.48;63.17
79465;BME280;68932;47.410;8.232;2023-09-07T09:27:09;97096.80;;;22.51;63.39
79465;BME280;68932;47.410;8.232;2023-09-07T09:29:37;97096.83;;;22.56;63.20
79465;BME280;68932;47.410;8.232;2023-09-07T09:32:07;97095.96;;;22.62;63.48
79465;BME280;68932;47.410;8.232;2023-09-07T09:34:37;97094.64;;;22.67;63.22
79465;BME280;68932;47.410;8.232;2023-09-07T09:37:12;97088.17;;;22.72;63.01
79465;BME280;68932;47.410;8.232;2023-09-07T09:39:42;97086.48;;;22.78;62.97
79465;BME280;68932;47.410;8.232;2023-09-07T09:42:11;97083.17;;;22.82;62.58
79465;BME280;68932;47.410;8.232;2023-09-07T09:44:40;97077.57;;;22.82;62.56
79465;BME280;68932;47.410;8.232;2023-09-07T09:47:09;97079.14;;;22.87;63.05
79465;BME280;68932;47.410;8.232;2023-09-07T09:49:39;97081.87;;;22.94;63.63
79465;BME280;68932;47.410;8.232;2023-09-07T09:52:09;97076.77;;;23.02;64.33
79465;BME280;68932;47.410;8.232;2023-09-07T09:54:38;97077.09;;;23.08;63.90
79465;BME280;68932;47.410;8.232;2023-09-07T09:57:06;97075.20;;;23.14;63.22
79465;BME280;68932;47.410;8.232;2023-09-07T09:59:35;97074.80;;;23.19;63.72
79465;BME280;68932;47.410;8.232;2023-09-07T10:02:05;97074.90;;;23.24;63.75
79465;BME280;68932;47.410;8.232;2023-09-07T10:04:34;97075.39;;;23.31;63.51
79465;BME280;68932;47.410;8.232;2023-09-07T10:07:02;97072.34;;;23.35;63.22
79465;BME280;68932;47.410;8.232;2023-09-07T10:09:35;97064.15;;;23.41;63.59
79465;BME280;68932;47.410;8.232;2023-09-07T10:12:12;97062.37;;;23.47;63.97
79465;BME280;68932;47.410;8.232;2023-09-07T10:14:41;97060.63;;;23.55;64.26
79465;BME280;68932;47.410;8.232;2023-09-07T10:17:10;97061.77;;;23.62;63.95
79465;BME280;68932;47.410;8.232;2023-09-07T10:19:49;97061.77;;;23.69;63.89
79465;BME280;68932;47.410;8.232;2023-09-07T10:22:23;97062.21;;;23.76;63.57
79465;BME280;68932;47.410;8.232;2023-09-07T10:24:59;97060.84;;;23.82;63.24
79465;BME280;68932;47.410;8.232;2023-09-07T10:27:37;97060.02;;;23.87;63.09
79465;BME280;68932;47.410;8.232;2023-09-07T10:30:11;97057.37;;;23.95;63.02
79465;BME280;68932;47.410;8.232;2023-09-07T10:32:42;97058.15;;;24.00;62.82
79465;BME280;68932;47.410;8.232;2023-09-07T10:35:15;97052.77;;;24.06;63.13
79465;BME280;68932;47.410;8.232;2023-09-07T10:37:45;97052.41;;;24.12;63.10
79465;BME280;68932;47.410;8.232;2023-09-07T10:40:18;97050.30;;;24.18;62.54
79465;BME280;68932;47.410;8.232;2023-09-07T10:42:46;97043.73;;;24.23;62.94
79465;BME280;68932;47.410;8.232;2023-09-07T10:45:16;97042.67;;;24.30;63.04
79465;BME280;68932;47.410;8.232;2023-09-07T10:47:45;97040.21;;;24.36;62.29
79465;BME280;68932;47.410;8.232;2023-09-07T10:50:14;97038.85;;;24.40;61.42
79465;BME280;68932;47.410;8.232;2023-09-07T10:52:42;97040.70;;;24.44;60.96
79465;BME280;68932;47.410;8.232;2023-09-07T10:55:12;97039.52;;;24.46;60.57
79465;BME280;68932;47.410;8.232;2023-09-07T10:57:47;97038.48;;;24.49;60.50
79465;BME280;68932;47.410;8.232;2023-09-07T11:00:17;97038.35;;;24.53;60.53
79465;BME280;68932;47.410;8.232;2023-09-07T11:02:46;97037.27;;;24.59;60.20
79465;BME280;68932;47.410;8.232;2023-09-07T11:05:14;97033.81;;;24.64;59.55
79465;BME280;68932;47.410;8.232;2023-09-07T11:07:42;97029.58;;;24.69;59.65
79465;BME280;68932;47.410;8.232;2023-09-07T11:10:11;97025.71;;;24.75;59.16
79465;BME280;68932;47.410;8.232;2023-09-07T11:12:41;97023.44;;;24.78;59.20
79465;BME280;68932;47.410;8.232;2023-09-07T11:15:11;97024.73;;;24.84;59.05
79465;BME280;68932;47.410;8.232;2023-09-07T11:17:40;97019.72;;;24.91;59.72
79465;BME280;68932;47.410;8.232;2023-09-07T11:20:11;97021.40;;;24.96;58.93
79465;BME280;68932;47.410;8.232;2023-09-07T11:22:39;97018.27;;;25.01;59.18
79465;BME280;68932;47.410;8.232;2023-09-07T11:25:08;97016.55;;;25.07;59.51
79465;BME280;68932;47.410;8.232;2023-09-07T11:27:39;97013.08;;;25.12;58.86
79465;BME280;68932;47.410;8.232;2023-09-07T11:30:11;97011.42;;;25.17;58.56
79465;BME280;68932;47.410;8.232;2023-09-07T11:32:40;97005.66;;;25.23;58.80
79465;BME280;68932;47.410;8.232;2023-09-07T11:35:10;97005.61;;;25.29;58.69
79465;BME280;68932;47.410;8.232;2023-09-07T11:37:38;96999.98;;;25.36;59.10
79465;BME280;68932;47.410;8.232;2023-09-07T11:40:09;97000.73;;;25.42;59.31
79465;BME280;68932;47.410;8.232;2023-09-07T11:42:38;97001.42;;;25.48;59.63
79465;BME280;68932;47.410;8.232;2023-09-07T11:45:08;97001.98;;;25.56;59.52
79465;BME280;68932;47.410;8.232;2023-09-07T11:47:36;97002.65;;;25.63;59.30
79465;BME280;68932;47.410;8.232;2023-09-07T11:50:06;97002.94;;;25.68;58.41
79465;BME280;68932;47.410;8.232;2023-09-07T11:52:34;97002.33;;;25.71;57.49
79465;BME280;68932;47.410;8.232;2023-09-07T11:55:03;97001.26;;;25.77;58.22
79465;BME280;68932;47.410;8.232;2023-09-07T11:57:31;96997.54;;;25.83;57.78
79465;BME280;68932;47.410;8.232;2023-09-07T11:59:59;96996.92;;;25.91;57.47
79465;BME280;68932;47.410;8.232;2023-09-07T12:02:28;96997.51;;;25.99;58.02
79465;BME280;68932;47.410;8.232;2023-09-07T12:04:56;96993.38;;;26.07;57.49
79465;BME280;68932;47.410;8.232;2023-09-07T12:07:24;96993.32;;;26.15;57.36
79465;BME280;68932;47.410;8.232;2023-09-07T12:09:53;96991.86;;;26.20;56.41
79465;BME280;68932;47.410;8.232;2023-09-07T12:12:21;96989.60;;;26.25;56.56
79465;BME280;68932;47.410;8.232;2023-09-07T12:14:49;96989.96;;;26.31;55.82
79465;BME280;68932;47.410;8.232;2023-09-07T12:17:18;96986.84;;;26.37;55.93
79465;BME280;68932;47.410;8.232;2023-09-07T12:19:46;96989.05;;;26.42;55.58
79465;BME280;68932;47.410;8.232;2023-09-07T12:22:14;96980.69;;;26.46;54.85
79465;BME280;68932;47.410;8.232;2023-09-07T12:24:43;96975.06;;;26.50;55.03
79465;BME280;68932;47.410;8.232;2023-09-07T12:27:11;96974.41;;;26.55;54.53
79465;BME280;68932;47.410;8.232;2023-09-07T12:29:40;96976.80;;;26.60;54.68
79465;BME280;68932;47.410;8.232;2023-09-07T12:32:08;96977.23;;;26.68;55.83
79465;BME280;68932;47.410;8.232;2023-09-07T12:34:37;96974.02;;;26.76;56.16
79465;BME280;68932;47.410;8.232;2023-09-07T12:37:05;96974.99;;;26.85;54.69
79465;BME280;68932;47.410;8.232;2023-09-07T12:39:33;96972.14;;;26.93;54.36
79465;BME280;68932;47.410;8.232;2023-09-07T12:42:02;96972.20;;;26.98;53.56
79465;BME280;68932;47.410;8.232;2023-09-07T12:44:30;96969.54;;;27.03;53.60
79465;BME280;68932;47.410;8.232;2023-09-07T12:46:58;96968.85;;;27.08;52.52
79465;BME280;68932;47.410;8.232;2023-09-07T12:49:27;96962.00;;;27.15;53.02
79465;BME280;68932;47.410;8.232;2023-09-07T12:51:55;96961.23;;;27.22;52.84
79465;BME280;68932;47.410;8.232;2023-09-07T12:54:23;96961.67;;;27.30;53.52
79465;BME280;68932;47.410;8.232;2023-09-07T12:56:51;96960.58;;;27.38;53.51
79465;BME280;68932;47.410;8.232;2023-09-07T12:59:20;96963.82;;;27.45;52.61
79465;BME280;68932;47.410;8.232;2023-09-07T13:01:48;96958.66;;;27.53;51.36
79465;BME280;68932;47.410;8.232;2023-09-07T13:04:16;96960.08;;;27.61;51.83
79465;BME280;68932;47.410;8.232;2023-09-07T13:06:44;96954.16;;;27.70;51.12